Time;durP1;ratioP1;P1;durP2;ratioP2;P2;SDS_P1;SDS_P2;PMS_P1;PMS_P2;Temp;Humidity;BMP_temperature;BMP_pressure;BME280_temperature;BME280_humidity;BME280_pressure;Samples;Min_cycle;Max_cycle;Signal;HPM_P1;HPM_P2
2022/09/13 00:11:30;;;;;;;13.52;8.60;;;;;;;10.67;80.22;100002.94;30733803;28;118667;-66
2022/09/13 00:26:31;;;;;;;14.00;8.88;;;;;;;10.46;79.89;99988.41;30747973;28;110118;-66
2022/09/13 00:41:32;;;;;;;14.68;9.52;;;;;;;10.18;80.59;99972.00;30731299;28;118095;-65
2022/09/13 00:56:40;;;;;;;12.27;7.97;;;;;;;10.08;81.31;99964.25;30730109;28;97099;-67
2022/09/13 01:11:59;;;;;;;17.10;8.60;;;;;;;10.02;81.23;99967.59;30730104;28;97062;-66
2022/09/13 01:27:36;;;;;;;12.87;8.00;;;;;;;9.99;81.51;99963.47;30729000;28;97224;-65
2022/09/13 01:42:53;;;;;;;14.13;8.30;;;;;;;9.91;81.60;99949.34;30730855;28;97020;-66
2022/09/13 01:58:06;;;;;;;9.93;8.00;;;;;;;9.89;81.79;99925.56;30746787;28;96702;-67
2022/09/13 02:13:13;;;;;;;11.80;8.47;;;;;;;9.76;81.79;99901.34;30745581;28;97178;-66
2022/09/13 02:28:17;;;;;;;11.37;7.93;;;;;;;9.64;81.92;99885.75;30743652;28;97321;-66
2022/09/13 02:43:34;;;;;;;15.07;8.33;;;;;;;9.49;82.02;99868.84;30742108;28;96684;-66
2022/09/13 02:58:53;;;;;;;15.30;8.47;;;;;;;9.35;82.22;99862.41;30739696;28;97022;-66
2022/09/13 03:14:18;;;;;;;18.77;8.63;;;;;;;9.26;82.51;99834.19;30739101;28;96763;-66
2022/09/13 03:29:40;;;;;;;13.20;8.87;;;;;;;9.21;82.85;99821.41;30736962;28;97594;-65
2022/09/13 03:44:45;;;;;;;14.77;9.07;;;;;;;9.15;82.66;99804.31;30734136;28;97268;-66
2022/09/13 03:59:56;;;;;;;12.03;8.67;;;;;;;9.02;83.28;99806.69;30734028;28;97462;-66
2022/09/13 04:14:56;;;;;;;13.40;8.33;;;;;;;9.03;83.42;99796.88;30732331;28;97452;-66
2022/09/13 04:29:57;;;;;;;18.98;8.60;;;;;;;9.06;83.46;99805.34;30729886;28;96707;-65
2022/09/13 04:44:57;;;;;;;17.35;8.52;;;;;;;9.24;83.69;99794.50;30638059;28;102151;-64
2022/09/13 04:59:57;;;;;;;10.98;7.55;;;;;;;9.77;83.73;99792.13;30688399;28;96651;-64
2022/09/13 05:14:58;;;;;;;10.15;6.63;;;;;;;10.11;83.39;99806.84;30604113;28;99214;-64
2022/09/13 05:29:58;;;;;;;11.25;7.03;;;;;;;10.31;82.97;99801.91;30701605;28;97204;-65
2022/09/13 05:44:58;;;;;;;12.65;7.72;;;;;;;11.04;82.80;99792.63;30701001;28;101921;-65
2022/09/13 05:59:59;;;;;;;11.93;6.13;;;;;;;11.78;82.39;99787.22;30737005;28;98000;-66
2022/09/13 06:14:59;;;;;;;12.18;9.02;;;;;;;12.63;81.01;99754.53;30664743;28;123403;-67
2022/09/13 06:29:59;;;;;;;14.02;4.35;;;;;;;13.33;81.13;99735.84;30659287;28;99806;-66
2022/09/13 06:44:59;;;;;;;6.00;4.25;;;;;;;14.27;79.58;99720.84;30669811;28;97766;-66
2022/09/13 07:00:00;;;;;;;5.15;3.28;;;;;;;14.76;78.26;99729.47;30612967;28;113104;-67
2022/09/13 07:15:00;;;;;;;4.63;3.00;;;;;;;16.44;77.19;99728.66;30614908;28;97246;-67
2022/09/13 07:30:01;;;;;;;6.68;3.10;;;;;;;17.62;72.99;99712.47;30612965;28;116414;-66
2022/09/13 07:45:01;;;;;;;6.10;3.00;;;;;;;18.78;69.99;99723.69;30609312;28;101736;-67
2022/09/13 08:00:02;;;;;;;6.00;2.72;;;;;;;19.98;68.16;99729.59;30657894;28;97659;-65
2022/09/13 08:15:03;;;;;;;4.93;3.13;;;;;;;20.39;65.79;99716.75;30722670;28;97426;-64
2022/09/13 08:30:04;;;;;;;3.35;2.35;;;;;;;21.71;63.16;99701.72;30694833;28;98065;-63
2022/09/13 08:45:07;;;;;;;6.83;3.50;;;;;;;22.46;57.49;99701.81;30651214;28;97819;-62
2022/09/13 09:00:22;;;;;;;4.10;2.67;;;;;;;27.61;52.09;99691.00;30636829;28;96778;-63
2022/09/13 09:15:35;;;;;;;2.97;2.00;;;;;;;36.40;28.61;99679.06;30627204;28;96727;-69
2022/09/13 09:30:44;;;;;;;2.73;2.10;;;;;;;34.34;28.35;99644.50;30625470;28;97378;-67
2022/09/13 09:45:45;;;;;;;4.47;2.60;;;;;;;27.21;34.94;99636.56;30744850;28;97361;-65
2022/09/13 10:00:50;;;;;;;2.83;1.90;;;;;;;24.37;39.47;99618.03;30694646;28;97202;-64
2022/09/13 10:15:52;;;;;;;3.50;2.73;;;;;;;22.75;42.64;99601.78;30688741;28;97139;-61
2022/09/13 10:31:09;;;;;;;5.00;2.60;;;;;;;21.44;45.15;99577.84;30739414;28;96795;-64
2022/09/13 10:46:20;;;;;;;12.90;3.30;;;;;;;21.64;46.47;99572.63;30658690;28;97373;-63
2022/09/13 11:01:40;;;;;;;3.77;2.30;;;;;;;23.94;43.94;99564.78;30615619;28;97520;-63
2022/09/13 11:17:05;;;;;;;3.23;2.17;;;;;;;23.34;43.87;99560.97;30615236;28;97283;-62
2022/09/13 11:32:23;;;;;;;3.67;2.10;;;;;;;23.02;44.32;99551.09;30662618;28;97473;-63
2022/09/13 11:47:48;;;;;;;5.53;2.27;;;;;;;23.31;44.21;99525.06;30621063;28;99001;-65
2022/09/13 12:03:14;;;;;;;4.00;2.73;;;;;;;23.09;45.13;99521.78;30661380;28;98475;-65
2022/09/13 12:18:24;;;;;;;7.43;3.07;;;;;;;22.12;47.09;99510.31;30660796;28;97540;-64
2022/09/13 12:33:24;;;;;;;5.17;3.00;;;;;;;21.66;47.92;99491.03;30614610;28;98732;-64
2022/09/13 12:48:50;;;;;;;5.40;2.90;;;;;;;21.08;49.79;99480.00;30619362;28;97578;-64
2022/09/13 13:03:50;;;;;;;4.30;2.80;;;;;;;21.03;50.60;99463.72;30597396;28;96693;-64
2022/09/13 13:18:53;;;;;;;4.50;3.30;;;;;;;21.24;50.48;99473.66;30595669;28;97416;-69
2022/09/13 13:33:59;;;;;;;5.17;2.97;;;;;;;21.31;50.33;99451.78;30593376;28;97907;-69
2022/09/13 13:49:30;;;;;;;4.77;3.43;;;;;;;21.24;51.43;99429.47;30611713;28;97283;-64
2022/09/13 14:04:45;;;;;;;5.13;2.93;;;;;;;21.26;51.62;99414.59;30627286;28;97586;-67
2022/09/13 14:19:54;;;;;;;5.63;3.13;;;;;;;21.34;51.45;99390.81;30741875;28;97141;-64
2022/09/13 14:35:00;;;;;;;5.30;3.10;;;;;;;21.34;52.32;99390.81;30737831;28;98873;-71
2022/09/13 14:50:10;;;;;;;5.80;3.33;;;;;;;21.05;52.77;99388.44;30741322;28;96733;-66
2022/09/13 15:05:15;;;;;;;6.00;3.73;;;;;;;21.10;53.30;99364.13;30741051;28;96892;-69
2022/09/13 15:20:15;;;;;;;5.57;3.20;;;;;;;21.60;52.94;99362.81;30708505;28;98046;-66
2022/09/13 15:35:22;;;;;;;4.63;3.30;;;;;;;21.77;52.43;99345.56;30660828;28;97911;-64
2022/09/13 15:50:27;;;;;;;5.20;3.33;;;;;;;21.04;52.41;99343.50;30617579;28;97163;-67
2022/09/13 16:05:28;;;;;;;4.27;3.43;;;;;;;20.77;53.42;99334.38;30716728;28;97353;-72
2022/09/13 16:20:28;;;;;;;4.43;3.00;;;;;;;20.57;54.10;99324.19;30672268;28;106770;-71
2022/09/13 16:35:31;;;;;;;7.07;4.40;;;;;;;20.13;55.41;99329.69;30618140;28;97406;-74
2022/09/13 16:50:32;;;;;;;9.90;3.13;;;;;;;19.62;56.67;99333.41;30601108;28;97379;-70
2022/09/13 17:05:32;;;;;;;8.85;5.63;;;;;;;19.32;57.94;99338.41;30712355;28;97223;-71
2022/09/13 17:20:32;;;;;;;5.22;3.58;;;;;;;19.13;58.67;99333.28;30741935;28;98457;-69
2022/09/13 17:35:33;;;;;;;7.00;4.30;;;;;;;18.90;59.97;99318.94;30745393;28;108239;-71
2022/09/13 17:50:34;;;;;;;6.33;3.83;;;;;;;18.76;60.46;99328.38;30746710;28;96740;-73
2022/09/13 18:05:34;;;;;;;4.03;3.08;;;;;;;18.64;60.82;99327.63;30705704;28;120001;-66
2022/09/13 18:20:34;;;;;;;4.45;3.22;;;;;;;18.41;61.31;99332.09;30674813;28;99029;-70
2022/09/13 18:35:35;;;;;;;6.63;3.60;;;;;;;18.21;61.57;99327.97;30657692;28;96882;-63
2022/09/13 18:50:41;;;;;;;8.43;4.05;;;;;;;17.77;62.50;99330.34;30674325;28;111103;-64
2022/09/13 19:05:41;;;;;;;6.40;4.07;;;;;;;17.80;63.16;99323.66;30671973;28;98152;-64
2022/09/13 19:20:42;;;;;;;7.60;4.75;;;;;;;17.51;63.44;99337.91;30640407;28;96727;-64
2022/09/13 19:35:42;;;;;;;6.75;5.13;;;;;;;17.36;63.96;99324.94;30673365;28;97270;-63
2022/09/13 19:50:42;;;;;;;7.15;4.88;;;;;;;17.27;64.88;99333.59;30734591;28;120552;-63
2022/09/13 20:05:43;;;;;;;8.07;5.00;;;;;;;17.22;64.84;99323.53;30733693;28;97384;-64
2022/09/13 20:20:46;;;;;;;8.77;6.55;;;;;;;17.01;65.75;99324.94;30659595;28;119486;-69
2022/09/13 20:35:47;;;;;;;7.73;6.07;;;;;;;16.74;66.37;99314.59;30613233;28;97125;-70
2022/09/13 20:50:58;;;;;;;9.07;5.80;;;;;;;16.52;67.15;99296.31;30711995;28;97128;-66
2022/09/13 21:05:59;;;;;;;7.83;6.03;;;;;;;16.21;67.60;99300.09;30769057;28;96693;-65
2022/09/13 21:21:01;;;;;;;11.30;6.47;;;;;;;16.12;68.73;99296.94;30768842;28;97015;-69
2022/09/13 21:36:03;;;;;;;10.73;6.20;;;;;;;16.16;69.47;99310.75;30768114;28;96731;-68
2022/09/13 21:51:05;;;;;;;;;;;;;;;16.09;69.90;99313.53;30768253;28;97734;-66
2022/09/13 22:06:07;;;;;;;9.97;6.63;;;;;;;15.85;70.00;99299.97;30754089;28;97220;-66
2022/09/13 22:21:13;;;;;;;13.60;7.67;;;;;;;15.43;70.89;99283.72;30745816;28;96708;-67
2022/09/13 22:36:15;;;;;;;13.17;7.50;;;;;;;15.31;71.87;99280.16;30744149;28;96751;-66
2022/09/13 22:51:17;;;;;;;9.23;7.03;;;;;;;15.05;72.54;99282.09;30742243;28;97206;-66
2022/09/13 23:06:19;;;;;;;12.03;7.10;;;;;;;14.86;73.10;99289.28;30741869;28;97318;-67
2022/09/13 23:21:20;;;;;;;;;;;;;;;14.89;74.00;99289.66;30740183;28;96596;-67
2022/09/13 23:36:25;;;;;;;11.27;8.03;;;;;;;15.16;74.55;99284.03;30739144;28;97117;-66
2022/09/13 23:51:26;;;;;;;12.37;7.50;;;;;;;15.22;74.00;99277.75;30737275;28;96760;-64
